createdAt,value
2019-03-10T00:00:28.350Z,11.40
2019-03-10T00:02:56.773Z,11.40
2019-03-10T00:05:25.181Z,11.40
2019-03-10T00:07:53.675Z,11.50
2019-03-10T00:10:22.074Z,11.50
2019-03-10T00:12:50.486Z,11.50
2019-03-10T00:15:18.881Z,11.40
2019-03-10T00:17:47.301Z,11.40
2019-03-10T00:20:15.704Z,11.40
2019-03-10T00:22:44.153Z,11.40
2019-03-10T00:25:12.790Z,11.40
2019-03-10T00:27:41.200Z,11.40
2019-03-10T00:30:14.902Z,11.40
2019-03-10T00:32:43.412Z,11.40
2019-03-10T00:35:11.946Z,11.40
2019-03-10T00:37:40.346Z,11.40
2019-03-10T00:40:45.570Z,11.40
2019-03-10T00:43:48.841Z,11.30
2019-03-10T00:46:39.890Z,11.40
2019-03-10T00:49:20.264Z,11.40
2019-03-10T00:52:07.996Z,11.40
2019-03-10T00:54:36.380Z,11.30
2019-03-10T00:57:04.955Z,11.20
2019-03-10T00:59:33.368Z,11.20
2019-03-10T01:02:01.792Z,11.10
2019-03-10T01:04:30.259Z,11.10
2019-03-10T01:06:58.745Z,11.10
2019-03-10T01:09:27.148Z,11.10
2019-03-10T01:11:55.797Z,11.00
2019-03-10T01:14:24.206Z,11.00
2019-03-10T01:16:52.752Z,11.00
2019-03-10T01:19:22.487Z,11.00
2019-03-10T01:21:51.329Z,11.00
2019-03-10T01:24:19.723Z,11.10
2019-03-10T01:26:48.143Z,11.10
2019-03-10T01:29:16.540Z,11.00
2019-03-10T01:32:13.866Z,11.00
2019-03-10T01:34:54.197Z,10.90
2019-03-10T01:37:22.623Z,10.90
2019-03-10T01:39:51.009Z,10.80
2019-03-10T01:42:19.438Z,10.80
2019-03-10T01:44:47.840Z,10.90
2019-03-10T01:47:16.248Z,10.90
2019-03-10T01:49:44.647Z,10.90
2019-03-10T01:52:13.059Z,10.90
2019-03-10T01:54:41.452Z,11.00
2019-03-10T01:57:09.939Z,11.00
2019-03-10T01:59:38.329Z,11.10
2019-03-10T02:02:06.736Z,11.10
2019-03-10T02:04:35.151Z,11.20
2019-03-10T02:07:03.562Z,11.20
2019-03-10T02:09:32.094Z,11.20
2019-03-10T02:12:00.495Z,11.20
2019-03-10T02:14:28.916Z,11.20
2019-03-10T02:16:57.314Z,11.10
2019-03-10T02:19:25.708Z,11.20
2019-03-10T02:21:54.141Z,11.10
2019-03-10T02:24:24.015Z,11.00
2019-03-10T02:26:52.820Z,11.00
2019-03-10T02:29:21.239Z,11.00
2019-03-10T02:31:49.641Z,11.00
2019-03-10T02:34:18.043Z,11.00
2019-03-10T02:36:46.768Z,10.90
2019-03-10T02:39:15.188Z,10.90
2019-03-10T02:41:43.585Z,10.90
2019-03-10T02:44:11.996Z,10.70
2019-03-10T02:46:40.397Z,10.60
2019-03-10T02:49:08.810Z,10.60
2019-03-10T02:51:37.204Z,10.60
2019-03-10T02:54:05.616Z,10.60
2019-03-10T02:56:34.008Z,10.60
2019-03-10T02:59:02.414Z,10.60
2019-03-10T03:01:30.803Z,10.60
2019-03-10T03:03:59.413Z,10.50
2019-03-10T03:06:27.873Z,10.50
2019-03-10T03:08:57.147Z,10.50
2019-03-10T03:11:25.527Z,10.50
2019-03-10T03:13:53.953Z,10.60
2019-03-10T03:16:22.351Z,10.60
2019-03-10T03:18:50.756Z,10.60
2019-03-10T03:21:19.173Z,10.60
2019-03-10T03:23:47.582Z,10.70
2019-03-10T03:26:15.991Z,10.70
2019-03-10T03:28:44.399Z,10.80
2019-03-10T03:31:12.813Z,10.80
2019-03-10T03:33:41.238Z,10.80
2019-03-10T03:36:15.569Z,10.70
2019-03-10T03:39:00.387Z,10.60
2019-03-10T03:41:28.794Z,10.60
2019-03-10T03:43:57.182Z,10.60
2019-03-10T03:46:25.607Z,10.50
2019-03-10T03:48:54.015Z,10.50
2019-03-10T03:51:22.402Z,10.50
2019-03-10T03:53:50.811Z,10.40
2019-03-10T03:56:19.224Z,10.50
2019-03-10T03:58:47.630Z,10.40
2019-03-10T04:01:17.761Z,10.30
2019-03-10T04:03:46.191Z,10.30
2019-03-10T04:06:14.574Z,10.30
2019-03-10T04:09:02.391Z,10.30
2019-03-10T04:11:30.780Z,10.30
2019-03-10T04:13:59.211Z,10.20
2019-03-10T04:16:27.610Z,10.20
2019-03-10T04:18:56.039Z,10.30
2019-03-10T04:21:24.420Z,10.20
2019-03-10T04:23:52.844Z,10.20
2019-03-10T04:26:21.265Z,10.20
2019-03-10T04:28:49.662Z,10.10
2019-03-10T04:31:18.076Z,10.10
2019-03-10T04:33:46.476Z,10.10
2019-03-10T04:36:14.891Z,10.10
2019-03-10T04:38:43.283Z,10.20
2019-03-10T04:41:11.714Z,10.20
2019-03-10T04:43:40.338Z,10.20
2019-03-10T04:46:08.756Z,10.20
2019-03-10T04:48:37.162Z,10.20
2019-03-10T04:51:05.575Z,10.20
2019-03-10T04:53:33.957Z,10.20
2019-03-10T04:56:07.048Z,10.20
2019-03-10T04:58:37.094Z,10.10
2019-03-10T05:01:05.522Z,10.00
2019-03-10T05:03:33.907Z,10.00
2019-03-10T05:06:02.350Z,9.90
2019-03-10T05:08:30.731Z,9.80
2019-03-10T05:10:59.152Z,9.80
2019-03-10T05:13:27.555Z,9.70
2019-03-10T05:15:55.975Z,9.70
2019-03-10T05:18:24.387Z,9.60
2019-03-10T05:20:52.806Z,9.60
2019-03-10T05:23:32.771Z,9.60
2019-03-10T05:26:01.306Z,9.70
2019-03-10T05:28:51.483Z,9.60
2019-03-10T05:31:19.911Z,9.50
2019-03-10T05:33:48.293Z,9.50
2019-03-10T05:36:16.713Z,9.50
2019-03-10T05:38:45.112Z,9.50
2019-03-10T05:41:13.631Z,9.60
2019-03-10T05:43:42.041Z,9.50
2019-03-10T05:46:10.456Z,9.50
2019-03-10T05:48:38.871Z,9.50
2019-03-10T05:51:07.274Z,9.60
2019-03-10T05:53:35.690Z,9.60
2019-03-10T05:56:04.083Z,9.60
2019-03-10T05:58:32.475Z,9.70
2019-03-10T06:01:00.889Z,9.70
2019-03-10T06:03:29.294Z,9.70
2019-03-10T06:05:57.741Z,9.60
2019-03-10T06:08:26.144Z,9.60
2019-03-10T06:10:54.559Z,9.70
2019-03-10T06:13:22.953Z,9.70
2019-03-10T06:15:51.345Z,9.70
2019-03-10T06:18:19.743Z,9.70
2019-03-10T06:20:48.174Z,9.70
2019-03-10T06:23:16.547Z,9.60
2019-03-10T06:25:44.946Z,9.60
2019-03-10T06:28:14.253Z,9.60
2019-03-10T06:30:42.655Z,9.60
2019-03-10T06:33:11.128Z,9.60
2019-03-10T06:35:39.531Z,9.50
2019-03-10T06:38:07.937Z,9.60
2019-03-10T06:40:36.416Z,9.60
2019-03-10T06:43:04.800Z,9.60
2019-03-10T06:45:33.291Z,9.70
2019-03-10T06:48:01.684Z,9.70
2019-03-10T06:50:30.089Z,9.80
2019-03-10T06:52:58.484Z,9.80
2019-03-10T06:55:26.891Z,9.80
2019-03-10T06:57:55.293Z,9.80
2019-03-10T07:00:23.672Z,9.80
2019-03-10T07:02:52.097Z,9.80
2019-03-10T07:05:20.491Z,9.80
2019-03-10T07:07:48.895Z,9.80
2019-03-10T07:10:17.437Z,9.90
2019-03-10T07:12:45.827Z,10.00
2019-03-10T07:15:14.485Z,10.00
2019-03-10T07:17:42.962Z,10.10
2019-03-10T07:20:13.799Z,10.20
2019-03-10T07:22:42.233Z,10.30
2019-03-10T07:25:10.779Z,10.30
2019-03-10T07:27:57.023Z,10.40
2019-03-10T07:30:33.055Z,10.50
2019-03-10T07:33:14.815Z,10.60
2019-03-10T07:35:44.878Z,10.70
2019-03-10T07:38:23.666Z,10.70
2019-03-10T07:40:59.573Z,10.70
2019-03-10T07:43:35.559Z,10.70
2019-03-10T07:46:05.597Z,10.70
2019-03-10T07:48:44.299Z,10.60
2019-03-10T07:51:23.250Z,10.60
2019-03-10T07:53:53.334Z,10.60
2019-03-10T07:56:26.562Z,10.50
2019-03-10T07:59:02.787Z,10.40
2019-03-10T08:01:32.851Z,10.40
2019-03-10T08:04:21.000Z,10.40
2019-03-10T08:07:07.352Z,10.50
2019-03-10T08:09:37.458Z,10.60
2019-03-10T08:12:07.589Z,10.70
2019-03-10T08:14:43.732Z,10.70
2019-03-10T08:17:16.647Z,10.80
2019-03-10T08:19:46.683Z,10.90
2019-03-10T08:22:19.665Z,11.00
2019-03-10T08:24:58.725Z,11.00
2019-03-10T08:27:37.252Z,11.20
2019-03-10T08:30:12.641Z,11.30
2019-03-10T08:32:42.693Z,11.40
2019-03-10T08:35:12.732Z,11.50
2019-03-10T08:37:45.747Z,11.60
2019-03-10T08:40:15.789Z,11.80
2019-03-10T08:42:54.733Z,11.90
2019-03-10T08:45:27.755Z,11.90
2019-03-10T08:48:09.881Z,12.00
2019-03-10T08:50:42.601Z,12.10
2019-03-10T08:53:25.138Z,12.20
2019-03-10T08:55:55.180Z,12.30
2019-03-10T08:58:40.217Z,12.30
2019-03-10T09:01:13.049Z,12.40
2019-03-10T09:03:43.127Z,12.50
2019-03-10T09:06:13.151Z,12.60
2019-03-10T09:08:45.871Z,12.60
2019-03-10T09:11:34.186Z,12.70
2019-03-10T09:14:07.214Z,12.60
2019-03-10T09:16:53.515Z,12.60
2019-03-10T09:19:23.565Z,12.70
2019-03-10T09:22:00.213Z,12.70
2019-03-10T09:24:42.455Z,12.80
2019-03-10T09:27:30.945Z,12.90
2019-03-10T09:30:19.336Z,12.90
2019-03-10T09:32:52.226Z,12.90
2019-03-10T09:35:25.344Z,12.90
2019-03-10T09:40:37.133Z,12.80
2019-03-10T09:43:19.113Z,12.90
2019-03-10T09:48:49.550Z,12.90
2019-03-10T09:51:25.021Z,12.90
2019-03-10T09:53:58.045Z,13.10
2019-03-10T09:56:46.524Z,13.10
2019-03-10T09:59:22.479Z,13.10
2019-03-10T10:02:10.716Z,13.10
2019-03-10T10:04:56.074Z,13.10
2019-03-10T10:07:43.940Z,13.00
2019-03-10T10:10:30.354Z,13.10
2019-03-10T10:13:16.681Z,13.20
2019-03-10T10:15:49.394Z,13.20
2019-03-10T10:18:19.452Z,13.20
2019-03-10T10:20:55.330Z,13.10
2019-03-10T10:23:25.460Z,13.20
2019-03-10T10:25:55.620Z,13.30
2019-03-10T10:28:34.672Z,13.40
2019-03-10T10:31:04.804Z,13.60
2019-03-10T10:33:37.552Z,13.60
2019-03-10T10:36:16.379Z,13.70
2019-03-10T10:38:58.464Z,13.90
2019-03-10T10:41:31.722Z,14.10
2019-03-10T10:44:19.618Z,14.10
2019-03-10T10:46:49.670Z,14.10
2019-03-10T10:49:19.727Z,14.10
2019-03-10T10:52:06.324Z,14.00
2019-03-10T10:54:54.760Z,13.80
2019-03-10T10:57:24.801Z,13.70
2019-03-10T10:59:57.529Z,13.70
2019-03-10T11:02:42.597Z,13.50
2019-03-10T11:07:54.284Z,13.60
2019-03-10T11:10:24.332Z,13.70
2019-03-10T11:12:54.365Z,13.80
2019-03-10T11:15:24.402Z,13.90
2019-03-10T11:17:54.429Z,14.00
2019-03-10T11:20:27.592Z,14.10
2019-03-10T11:23:13.909Z,14.20
2019-03-10T11:26:00.556Z,14.30
2019-03-10T11:28:36.546Z,14.60
2019-03-10T11:31:09.369Z,14.60
2019-03-10T11:33:45.377Z,14.70
2019-03-10T11:36:15.426Z,14.70
2019-03-10T11:38:45.460Z,14.60
2019-03-10T11:41:21.515Z,14.60
2019-03-10T11:43:57.531Z,14.60
2019-03-10T11:46:33.563Z,14.60
2019-03-10T11:49:15.613Z,14.60
2019-03-10T11:52:01.974Z,14.70
2019-03-10T11:54:53.888Z,14.90
2019-03-10T11:57:29.673Z,15.10
2019-03-10T12:00:16.923Z,15.20
2019-03-10T12:03:05.352Z,15.50
2019-03-10T12:05:50.611Z,15.70
2019-03-10T12:08:23.225Z,15.70
2019-03-10T12:10:51.708Z,15.60
2019-03-10T12:13:20.142Z,15.50
2019-03-10T12:15:48.606Z,15.40
2019-03-10T12:18:17.013Z,15.60
2019-03-10T12:20:45.458Z,15.70
2019-03-10T12:23:13.851Z,15.60
2019-03-10T12:25:42.264Z,15.70
2019-03-10T12:28:10.677Z,15.80
2019-03-10T12:30:39.096Z,16.10
2019-03-10T12:33:07.486Z,16.20
2019-03-10T12:35:35.906Z,16.20
2019-03-10T12:38:04.328Z,16.30
2019-03-10T12:40:32.778Z,16.30
2019-03-10T12:43:01.181Z,16.20
2019-03-10T12:45:29.618Z,15.90
2019-03-10T12:47:58.024Z,15.90
2019-03-10T12:50:26.427Z,16.00
2019-03-10T12:52:54.843Z,15.60
2019-03-10T12:55:24.234Z,15.60
2019-03-10T12:57:52.745Z,15.50
2019-03-10T13:00:21.169Z,15.50
2019-03-10T13:02:49.570Z,15.50
2019-03-10T13:05:17.984Z,15.60
2019-03-10T13:07:46.380Z,15.80
2019-03-10T13:10:14.796Z,15.90
2019-03-10T13:12:43.203Z,15.90
2019-03-10T13:15:12.558Z,16.00
2019-03-10T13:17:41.231Z,16.10
2019-03-10T13:20:11.329Z,16.10
2019-03-10T13:22:39.805Z,16.10
2019-03-10T13:25:12.255Z,16.10
2019-03-10T13:27:40.651Z,16.00
2019-03-10T13:30:15.002Z,16.00
2019-03-10T13:32:44.615Z,16.10
2019-03-10T13:35:13.537Z,16.10
2019-03-10T13:37:41.942Z,15.90
2019-03-10T13:40:14.493Z,16.00
2019-03-10T13:42:42.980Z,16.10
2019-03-10T13:45:13.306Z,16.10
2019-03-10T13:47:41.720Z,16.00
2019-03-10T13:50:15.058Z,15.90
2019-03-10T13:52:43.608Z,15.90
2019-03-10T13:55:12.098Z,15.90
2019-03-10T13:57:40.510Z,16.00
2019-03-10T14:00:21.259Z,16.00
2019-03-10T14:02:49.674Z,16.00
2019-03-10T14:05:18.144Z,16.00
2019-03-10T14:07:46.615Z,16.00
2019-03-10T14:10:21.958Z,16.20
2019-03-10T14:12:50.385Z,16.30
2019-03-10T14:15:19.722Z,16.60
2019-03-10T14:17:48.131Z,16.70
2019-03-10T14:20:17.025Z,16.50
2019-03-10T14:22:45.488Z,16.40
2019-03-10T14:25:15.883Z,16.40
2019-03-10T14:27:44.439Z,16.40
2019-03-10T14:30:17.776Z,16.30
2019-03-10T14:32:47.179Z,16.30
2019-03-10T14:35:16.047Z,16.30
2019-03-10T14:37:44.473Z,16.30
2019-03-10T14:40:20.857Z,16.30
2019-03-10T14:42:49.259Z,16.30
2019-03-10T14:45:18.695Z,16.20
2019-03-10T14:47:47.116Z,16.30
2019-03-10T14:50:17.542Z,16.50
2019-03-10T14:52:46.126Z,16.40
2019-03-10T14:55:21.500Z,16.50
2019-03-10T14:57:49.998Z,16.40
2019-03-10T15:00:24.115Z,16.60
2019-03-10T15:02:52.666Z,16.60
2019-03-10T15:05:22.030Z,16.40
2019-03-10T15:07:50.471Z,16.10
2019-03-10T15:10:19.008Z,15.80
2019-03-10T15:12:47.512Z,15.60
2019-03-10T15:15:22.520Z,15.40
2019-03-10T15:17:48.343Z,15.00
2019-03-10T15:20:17.700Z,14.80
2019-03-10T15:22:46.326Z,14.80
2019-03-10T15:25:19.753Z,14.60
2019-03-10T15:27:48.232Z,14.60
2019-03-10T15:30:21.799Z,14.50
2019-03-10T15:32:50.238Z,14.40
2019-03-10T15:35:19.582Z,14.40
2019-03-10T15:37:48.059Z,14.40
2019-03-10T15:40:17.524Z,14.20
2019-03-10T15:42:45.939Z,14.10
2019-03-10T15:45:15.791Z,14.00
2019-03-10T15:47:44.209Z,13.90
2019-03-10T15:50:24.792Z,13.70
2019-03-10T15:52:53.220Z,13.40
2019-03-10T15:55:21.607Z,13.00
2019-03-10T15:57:50.917Z,12.90
2019-03-10T16:00:24.410Z,13.00
2019-03-10T16:02:53.824Z,13.00
2019-03-10T16:05:22.297Z,13.00
2019-03-10T16:07:50.713Z,13.00
2019-03-10T16:10:19.269Z,13.00
2019-03-10T16:12:49.388Z,13.10
2019-03-10T16:15:23.538Z,13.20
2019-03-10T16:17:53.858Z,13.30
2019-03-10T16:20:22.258Z,13.30
2019-03-10T16:22:51.058Z,13.20
2019-03-10T16:25:19.714Z,13.10
2019-03-10T16:27:49.974Z,13.00
2019-03-10T16:30:22.360Z,13.00
2019-03-10T16:32:50.945Z,13.10
2019-03-10T16:35:21.826Z,13.10
2019-03-10T16:37:49.481Z,13.10
2019-03-10T16:40:20.948Z,13.00
2019-03-10T16:42:49.728Z,13.00
2019-03-10T16:45:20.365Z,13.00
2019-03-10T16:47:48.864Z,13.00
2019-03-10T16:50:24.825Z,13.00
2019-03-10T16:52:53.313Z,12.90
2019-03-10T16:55:21.707Z,12.80
2019-03-10T16:57:50.188Z,12.80
2019-03-10T17:00:20.837Z,12.80
2019-03-10T17:02:50.324Z,12.80
2019-03-10T17:05:19.776Z,12.70
2019-03-10T17:07:48.462Z,12.70
2019-03-10T17:10:18.472Z,12.70
2019-03-10T17:12:46.987Z,12.60
2019-03-10T17:15:17.536Z,12.60
2019-03-10T17:17:45.960Z,12.60
2019-03-10T17:20:16.206Z,12.50
2019-03-10T17:22:44.932Z,12.50
2019-03-10T17:25:17.288Z,12.40
2019-03-10T17:27:45.788Z,12.30
2019-03-10T17:30:21.100Z,12.20
2019-03-10T17:32:49.577Z,12.20
2019-03-10T17:35:19.605Z,12.10
2019-03-10T17:37:48.811Z,12.00
2019-03-10T17:40:20.535Z,11.90
2019-03-10T17:42:49.020Z,11.90
2019-03-10T17:45:21.905Z,11.80
2019-03-10T17:47:50.299Z,11.70
2019-03-10T17:50:18.957Z,11.70
2019-03-10T17:52:48.118Z,11.60
2019-03-10T17:55:23.811Z,11.60
2019-03-10T17:57:52.209Z,11.50
2019-03-10T18:00:27.931Z,11.50
2019-03-10T18:02:57.368Z,11.40
2019-03-10T18:05:25.768Z,11.50
2019-03-10T18:07:54.175Z,11.50
2019-03-10T18:10:22.583Z,11.60
2019-03-10T18:12:50.997Z,11.60
2019-03-10T18:15:19.542Z,11.70
2019-03-10T18:17:47.935Z,11.70
2019-03-10T18:20:17.592Z,11.70
2019-03-10T18:22:46.060Z,11.70
2019-03-10T18:25:15.007Z,11.70
2019-03-10T18:27:43.480Z,11.70
2019-03-10T18:30:22.636Z,11.70
2019-03-10T18:32:51.070Z,11.60
2019-03-10T18:35:19.628Z,11.50
2019-03-10T18:37:50.201Z,11.40
2019-03-10T18:40:28.020Z,11.40
2019-03-10T18:42:56.479Z,11.20
2019-03-10T18:45:24.952Z,11.20
2019-03-10T18:47:53.338Z,11.20
2019-03-10T18:50:27.870Z,11.10
2019-03-10T18:52:56.411Z,11.10
2019-03-10T18:55:25.144Z,11.10
2019-03-10T18:57:53.546Z,11.10
2019-03-10T19:00:29.237Z,11.10
2019-03-10T19:03:34.103Z,10.60
2019-03-10T19:06:02.492Z,9.70
2019-03-10T19:08:30.905Z,9.00
2019-03-10T19:10:59.299Z,8.50
2019-03-10T19:13:27.706Z,8.00
2019-03-10T19:15:56.100Z,7.70
2019-03-10T19:18:24.553Z,7.50
2019-03-10T19:20:55.627Z,7.40
2019-03-10T19:23:24.036Z,7.40
2019-03-10T19:25:52.452Z,7.40
2019-03-10T19:28:20.866Z,7.40
2019-03-10T19:30:49.295Z,7.40
2019-03-10T19:33:17.678Z,7.50
2019-03-10T19:35:46.108Z,7.50
2019-03-10T19:38:14.486Z,7.50
2019-03-10T19:40:42.895Z,7.60
2019-03-10T19:43:11.302Z,7.60
2019-03-10T19:45:39.774Z,7.60
2019-03-10T19:48:08.189Z,7.60
2019-03-10T19:50:36.595Z,7.60
2019-03-10T19:53:04.996Z,7.60
2019-03-10T19:55:33.411Z,7.60
2019-03-10T19:58:01.809Z,7.60
2019-03-10T20:00:30.220Z,7.70
2019-03-10T20:02:58.625Z,7.80
2019-03-10T20:05:27.104Z,7.80
2019-03-10T20:07:55.539Z,7.80
2019-03-10T20:10:24.568Z,7.90
2019-03-10T20:12:53.031Z,7.90
2019-03-10T20:15:23.457Z,7.90
2019-03-10T20:17:51.852Z,7.90
2019-03-10T20:20:22.304Z,8.00
2019-03-10T20:22:50.725Z,8.00
2019-03-10T20:25:19.140Z,8.00
2019-03-10T20:27:47.553Z,8.00
2019-03-10T20:30:20.850Z,8.00
2019-03-10T20:32:49.338Z,8.00
2019-03-10T20:35:18.127Z,8.00
2019-03-10T20:37:46.600Z,8.10
2019-03-10T20:40:22.530Z,8.20
2019-03-10T20:42:50.908Z,8.10
2019-03-10T20:45:19.378Z,8.10
2019-03-10T20:47:47.855Z,8.00
2019-03-10T20:50:18.062Z,8.00
2019-03-10T20:52:46.544Z,8.00
2019-03-10T20:55:15.293Z,8.00
2019-03-10T20:57:44.117Z,8.00
2019-03-10T21:00:15.609Z,8.00
2019-03-10T21:02:44.081Z,8.00
2019-03-10T21:05:12.828Z,8.00
2019-03-10T21:07:41.237Z,8.10
2019-03-10T21:10:27.127Z,8.10
2019-03-10T21:12:55.575Z,8.10
2019-03-10T21:15:26.211Z,8.00
2019-03-10T21:17:54.739Z,8.00
2019-03-10T21:20:24.406Z,7.90
2019-03-10T21:22:52.878Z,7.90
2019-03-10T21:25:29.935Z,7.80
2019-03-10T21:27:58.510Z,7.80
2019-03-10T21:30:31.110Z,7.80
2019-03-10T21:32:59.658Z,7.80
2019-03-10T21:35:28.063Z,7.80
2019-03-10T21:37:56.527Z,7.80
2019-03-10T21:40:28.015Z,7.70
2019-03-10T21:42:56.419Z,7.70
2019-03-10T21:45:24.894Z,7.70
2019-03-10T21:47:53.291Z,7.70
2019-03-10T21:50:21.761Z,7.70
2019-03-10T21:52:50.223Z,7.60
2019-03-10T21:55:18.681Z,7.60
2019-03-10T21:57:47.117Z,7.60
2019-03-10T22:00:19.628Z,7.60
2019-03-10T22:02:48.078Z,7.60
2019-03-10T22:05:17.326Z,7.60
2019-03-10T22:07:45.808Z,7.60
2019-03-10T22:10:27.455Z,7.60
2019-03-10T22:12:51.662Z,7.60
2019-03-10T22:15:21.010Z,7.60
2019-03-10T22:17:49.489Z,7.50
2019-03-10T22:20:18.536Z,7.60
2019-03-10T22:22:49.563Z,7.60
2019-03-10T22:25:17.293Z,7.50
2019-03-10T22:27:46.480Z,7.50
2019-03-10T22:30:22.197Z,7.50
2019-03-10T22:32:50.591Z,7.40
2019-03-10T22:35:18.991Z,7.40
2019-03-10T22:37:47.460Z,7.40
2019-03-10T22:40:17.099Z,7.40
2019-03-10T22:42:45.503Z,7.50
2019-03-10T22:45:20.628Z,7.60
2019-03-10T22:47:49.028Z,7.60
2019-03-10T22:50:17.774Z,7.70
2019-03-10T22:52:46.204Z,7.70
2019-03-10T22:55:15.342Z,7.80
2019-03-10T22:57:43.739Z,7.80
2019-03-10T23:00:42.597Z,7.80
2019-03-10T23:03:10.970Z,7.90
2019-03-10T23:05:41.477Z,7.80
2019-03-10T23:08:10.459Z,7.80
2019-03-10T23:10:38.964Z,7.80
2019-03-10T23:13:07.421Z,7.70
2019-03-10T23:15:35.840Z,7.70
2019-03-10T23:18:04.353Z,7.60
2019-03-10T23:20:32.747Z,7.60
2019-03-10T23:23:01.237Z,7.60
2019-03-10T23:25:29.708Z,7.50
2019-03-10T23:27:58.192Z,7.50
2019-03-10T23:30:26.590Z,7.40
2019-03-10T23:32:54.988Z,7.40
2019-03-10T23:35:23.387Z,7.50
2019-03-10T23:37:51.793Z,7.40
2019-03-10T23:40:20.337Z,7.40
2019-03-10T23:42:48.824Z,7.40
2019-03-10T23:45:18.164Z,7.40
2019-03-10T23:47:46.825Z,7.40
2019-03-10T23:50:17.933Z,7.30
2019-03-10T23:52:46.424Z,7.30
2019-03-10T23:55:15.445Z,7.30
2019-03-10T23:57:43.855Z,7.20
